Time;durP1;ratioP1;P1;durP2;ratioP2;P2;SDS_P1;SDS_P2;PMS_P1;PMS_P2;Temp;Humidity;BMP_temperature;BMP_pressure;BME280_temperature;BME280_humidity;BME280_pressure;Samples;Min_cycle;Max_cycle;Signal;HPM_P1;HPM_P2
2022/10/29 00:02:24;;;;;;;17.83;5.90;;;;;;;12.44;100.00;101906.25;5030345;28;20199;-77
2022/10/29 00:04:50;;;;;;;10.17;4.90;;;;;;;12.94;100.00;102043.00;5025357;28;20239;-78
2022/10/29 00:07:15;;;;;;;10.20;4.40;;;;;;;13.17;100.00;102032.97;5023950;28;20596;-77
2022/10/29 00:09:41;;;;;;;13.17;3.90;;;;;;;13.04;100.00;102054.31;5023624;28;20195;-78
2022/10/29 00:12:07;;;;;;;13.00;5.27;;;;;;;12.18;100.00;101922.00;5030773;28;20202;-78
2022/10/29 00:14:32;;;;;;;14.37;4.40;;;;;;;12.87;100.00;102069.81;5035085;28;20814;-78
2022/10/29 00:16:57;;;;;;;17.13;5.00;;;;;;;12.40;100.00;101985.66;5030657;28;20468;-78
2022/10/29 00:19:23;;;;;;;15.87;5.23;;;;;;;12.43;100.00;102017.56;5017575;28;20653;-79
2022/10/29 00:21:50;;;;;;;14.60;4.77;;;;;;;13.24;100.00;102133.56;5034871;28;20191;-77
2022/10/29 00:24:15;;;;;;;12.50;4.07;;;;;;;13.10;100.00;102124.47;5020703;28;20223;-78
2022/10/29 00:26:41;;;;;;;15.83;5.90;;;;;;;12.14;100.00;102007.56;5028265;28;20941;-77
2022/10/29 00:29:06;;;;;;;12.67;4.97;;;;;;;11.92;100.00;102000.38;5025776;28;20190;-77
2022/10/29 00:31:32;;;;;;;18.20;4.90;;;;;;;12.02;100.00;102000.13;5024158;28;20291;-78
2022/10/29 00:33:57;;;;;;;7.30;4.50;;;;;;;12.83;100.00;102130.44;5028239;28;20215;-77
2022/10/29 00:36:26;;;;;;;10.37;4.60;;;;;;;11.89;100.00;101947.78;5033419;28;20208;-80
2022/10/29 00:38:52;;;;;;;11.53;3.93;;;;;;;12.46;100.00;102099.78;5033556;28;20215;-79
2022/10/29 00:41:20;;;;;;;13.23;4.13;;;;;;;11.61;100.00;101942.09;5036318;28;20434;-78
2022/10/29 00:43:50;;;;;;;11.23;4.47;;;;;;;11.54;100.00;101939.28;5029600;28;20192;-78
2022/10/29 00:46:30;;;;;;;10.00;4.20;;;;;;;12.03;100.00;102053.69;5020035;28;21180;-77
2022/10/29 00:48:57;;;;;;;12.10;4.17;;;;;;;12.25;100.00;102078.09;5027621;28;20446;-78
2022/10/29 00:51:24;;;;;;;13.80;5.10;;;;;;;11.89;100.00;102043.72;5026357;28;20469;-77
2022/10/29 00:53:55;;;;;;;14.70;5.20;;;;;;;12.16;100.00;102093.47;5030909;28;20470;-79
2022/10/29 00:56:23;;;;;;;13.30;4.57;;;;;;;12.97;100.00;102196.13;5024900;28;20459;-78
2022/10/29 00:58:48;;;;;;;10.90;4.57;;;;;;;12.66;100.00;102197.88;5016259;28;20443;-78
2022/10/29 01:01:14;;;;;;;9.30;4.55;;;;;;;13.38;100.00;102309.81;5014113;28;20497;-78
2022/10/29 01:03:40;;;;;;;10.17;3.87;;;;;;;12.15;100.00;102072.94;5023678;28;20657;-77
2022/10/29 01:06:06;;;;;;;12.60;4.70;;;;;;;11.88;100.00;102072.44;5025786;28;20232;-78
2022/10/29 01:08:32;;;;;;;11.63;3.93;;;;;;;11.32;100.00;101994.63;5023721;28;20242;-77
2022/10/29 01:11:23;;;;;;;10.00;3.63;;;;;;;11.72;100.00;102013.41;5024016;28;20446;-78
2022/10/29 01:14:10;;;;;;;11.17;4.23;;;;;;;13.27;100.00;102269.81;5023840;28;20200;-78
2022/10/29 01:17:13;;;;;;;10.30;4.60;;;;;;;13.39;100.00;102264.81;5028864;28;20496;-78
2022/10/29 01:20:12;;;;;;;12.30;4.47;;;;;;;13.30;100.00;102256.81;5028374;28;20447;-79
2022/10/29 01:22:46;;;;;;;11.53;3.83;;;;;;;13.32;100.00;102246.69;5025838;28;20446;-77
2022/10/29 01:25:51;;;;;;;9.27;4.53;;;;;;;13.31;100.00;102228.84;5025668;28;20688;-78
2022/10/29 01:28:38;;;;;;;9.47;4.03;;;;;;;13.28;100.00;102229.22;5013917;28;20528;-78
2022/10/29 01:31:17;;;;;;;8.27;4.00;;;;;;;13.27;100.00;102230.22;5021831;28;20437;-77
2022/10/29 01:34:14;;;;;;;12.70;4.50;;;;;;;13.09;100.00;102232.38;5016201;28;20464;-77
2022/10/29 01:36:58;;;;;;;14.27;4.60;;;;;;;11.96;100.00;102077.78;5018088;28;20917;-77
2022/10/29 01:39:40;;;;;;;11.83;5.60;;;;;;;12.66;100.00;102202.44;5012831;28;20534;-78
2022/10/29 01:42:12;;;;;;;10.80;4.93;;;;;;;12.98;100.00;102252.50;5027345;28;20446;-79
2022/10/29 01:44:59;;;;;;;11.60;5.03;;;;;;;12.94;100.00;102247.66;5027233;28;20430;-77
2022/10/29 01:47:29;;;;;;;11.07;4.73;;;;;;;11.64;100.00;102061.81;5035063;28;20457;-77
2022/10/29 01:50:05;;;;;;;12.13;4.90;;;;;;;11.16;100.00;101918.69;5030748;28;20931;-77
2022/10/29 01:52:33;;;;;;;13.70;4.17;;;;;;;11.49;100.00;101986.50;5027547;28;20952;-77
2022/10/29 01:54:58;;;;;;;11.67;5.00;;;;;;;11.01;100.00;101966.91;5024793;28;20873;-77
2022/10/29 01:57:24;;;;;;;10.77;4.70;;;;;;;13.09;100.00;102237.78;5027362;28;21079;-78
2022/10/29 01:59:50;;;;;;;10.90;5.30;;;;;;;11.84;100.00;102048.78;5022958;28;20731;-77
2022/10/29 02:02:39;;;;;;;8.27;4.97;;;;;;;11.65;100.00;102041.97;5024770;28;20192;-79
2022/10/29 02:05:24;;;;;;;11.30;4.10;;;;;;;11.87;100.00;102045.75;5019892;28;20454;-78
2022/10/29 02:08:08;;;;;;;18.57;6.50;;;;;;;13.04;100.00;102241.00;5026270;28;21001;-79
2022/10/29 02:11:10;;;;;;;8.53;4.30;;;;;;;11.05;100.00;101907.34;5019863;28;20740;-77
2022/10/29 02:13:43;;;;;;;11.53;4.77;;;;;;;11.30;100.00;101982.38;5025581;28;20486;-78
2022/10/29 02:16:09;;;;;;;13.40;6.33;;;;;;;12.57;100.00;102196.25;5028750;28;20993;-78
2022/10/29 02:18:41;;;;;;;12.50;5.80;;;;;;;11.34;100.00;101996.28;5023254;28;20641;-78
2022/10/29 02:21:06;;;;;;;15.30;6.13;;;;;;;11.32;100.00;101910.53;5024676;28;20443;-78
2022/10/29 02:23:32;;;;;;;14.30;5.27;;;;;;;11.52;100.00;101965.47;5029832;28;20473;-79
2022/10/29 02:25:57;;;;;;;10.80;5.00;;;;;;;11.35;100.00;101936.22;5016608;28;20630;-77
2022/10/29 02:28:23;;;;;;;13.17;5.13;;;;;;;11.86;100.00;102017.19;5007002;28;20187;-78
2022/10/29 02:30:49;;;;;;;10.07;4.93;;;;;;;11.44;100.00;101948.56;5006730;28;20293;-77
2022/10/29 02:33:15;;;;;;;15.80;5.70;;;;;;;10.99;100.00;101826.66;5005341;28;20213;-77
2022/10/29 02:35:40;;;;;;;14.00;5.13;;;;;;;11.39;100.00;101938.34;4999979;28;20498;-77
2022/10/29 02:38:05;;;;;;;18.33;7.10;;;;;;;11.50;100.00;101998.91;5017940;28;20192;-78
2022/10/29 02:40:31;;;;;;;16.90;6.87;;;;;;;10.84;100.00;101864.16;5002478;28;20472;-77
2022/10/29 02:42:56;;;;;;;16.37;7.60;;;;;;;13.12;100.00;102224.78;5008410;28;20290;-79
2022/10/29 02:45:22;;;;;;;19.43;7.97;;;;;;;11.67;100.00;101970.91;5029728;28;20211;-77
2022/10/29 02:47:47;;;;;;;14.23;6.73;;;;;;;11.87;100.00;102008.13;5024429;28;20200;-79
2022/10/29 02:50:13;;;;;;;17.67;7.17;;;;;;;11.76;100.00;101998.59;5004598;28;20210;-77
2022/10/29 02:52:39;;;;;;;17.27;7.97;;;;;;;10.91;100.00;101851.72;5003291;28;20198;-78
2022/10/29 02:55:05;;;;;;;26.53;9.37;;;;;;;11.26;100.00;101956.91;5005186;28;20244;-79
2022/10/29 02:57:30;;;;;;;26.70;9.37;;;;;;;11.07;100.00;101934.00;5010872;28;20530;-78
2022/10/29 02:59:56;;;;;;;23.47;9.30;;;;;;;12.61;100.00;102164.44;5009557;28;20442;-77
2022/10/29 03:02:21;;;;;;;18.30;8.83;;;;;;;12.97;100.00;102202.34;5007399;28;20867;-78
2022/10/29 03:04:46;;;;;;;17.60;7.97;;;;;;;10.79;100.00;101877.25;5003315;28;20204;-77
2022/10/29 03:07:12;;;;;;;16.00;8.70;;;;;;;10.94;100.00;101953.34;5002729;28;20259;-77
2022/10/29 03:09:37;;;;;;;16.10;7.70;;;;;;;11.32;100.00;101994.63;5009535;28;20195;-78
2022/10/29 03:12:03;;;;;;;14.47;6.70;;;;;;;11.39;100.00;102013.56;5002180;28;20212;-78
2022/10/29 03:14:28;;;;;;;11.00;6.50;;;;;;;10.29;100.00;101827.47;5000286;28;20224;-78
2022/10/29 03:16:54;;;;;;;13.93;6.30;;;;;;;11.26;100.00;102027.56;5010932;28;20194;-78
2022/10/29 03:19:19;;;;;;;9.23;6.90;;;;;;;11.48;100.00;102034.00;5029166;28;20249;-78
2022/10/29 03:21:44;;;;;;;11.27;7.47;;;;;;;11.09;100.00;101985.69;5009532;28;20192;-78
2022/10/29 03:24:10;;;;;;;30.80;9.80;;;;;;;10.91;100.00;101959.06;5008480;28;20311;-78
2022/10/29 03:26:35;;;;;;;16.40;9.33;;;;;;;12.65;100.00;102216.91;5016897;28;20215;-78
2022/10/29 03:29:01;;;;;;;24.20;9.10;;;;;;;11.90;100.00;102124.22;5026816;28;20538;-78
2022/10/29 03:31:26;;;;;;;10.80;9.30;;;;;;;11.25;100.00;101968.66;5026859;28;20188;-79
2022/10/29 03:33:52;;;;;;;10.30;9.07;;;;;;;11.47;100.00;102029.66;5028946;28;20287;-78
2022/10/29 03:36:17;;;;;;;12.97;8.37;;;;;;;12.72;100.00;102246.63;5026820;28;20211;-77
2022/10/29 03:38:42;;;;;;;11.17;8.90;;;;;;;12.17;100.00;102130.09;5024901;28;20200;-77
2022/10/29 03:41:09;;;;;;;14.60;7.97;;;;;;;11.18;100.00;101968.50;5028098;28;20680;-78
2022/10/29 03:43:38;;;;;;;8.50;7.60;;;;;;;10.52;100.00;101879.38;5025869;28;20233;-77
2022/10/29 03:46:04;;;;;;;7.73;6.93;;;;;;;12.72;100.00;102219.72;5028443;28;21120;-77
2022/10/29 03:48:30;;;;;;;7.00;6.33;;;;;;;10.32;100.00;101846.75;5029804;28;20438;-79
2022/10/29 03:51:01;;;;;;;18.53;6.87;;;;;;;10.17;100.00;101835.88;5022029;28;20511;-77
2022/10/29 03:53:27;;;;;;;6.90;6.20;;;;;;;12.33;100.00;102173.03;5024773;28;20203;-77
2022/10/29 03:55:54;;;;;;;10.20;6.90;;;;;;;10.84;100.00;101899.03;5030330;28;20855;-77
2022/10/29 03:58:20;;;;;;;8.10;6.27;;;;;;;11.27;100.00;101998.84;5028766;28;20442;-79
2022/10/29 04:00:57;;;;;;;7.37;6.67;;;;;;;12.36;100.00;102171.84;5024503;28;20954;-77
2022/10/29 04:03:24;;;;;;;9.67;6.03;;;;;;;10.56;100.00;101863.78;5027847;28;20194;-78
2022/10/29 04:05:49;;;;;;;7.27;6.57;;;;;;;10.29;100.00;101825.63;5026885;28;20462;-77
2022/10/29 04:08:15;;;;;;;11.93;6.43;;;;;;;10.41;100.00;101836.81;5023323;28;20474;-77
2022/10/29 04:10:47;;;;;;;9.50;5.67;;;;;;;11.14;100.00;102042.41;5026477;28;20188;-77
2022/10/29 04:13:14;;;;;;;11.20;5.10;;;;;;;10.64;100.00;101965.69;5030380;28;20204;-78
2022/10/29 04:15:39;;;;;;;6.00;5.50;;;;;;;9.91;100.00;101811.97;5027671;28;20457;-78
2022/10/29 04:18:05;;;;;;;13.07;4.73;;;;;;;12.02;100.00;102194.56;5028659;28;20446;-78
2022/10/29 04:20:31;;;;;;;5.53;5.03;;;;;;;10.30;100.00;101921.19;5022747;28;20193;-78
2022/10/29 04:22:56;;;;;;;5.00;4.40;;;;;;;10.50;100.00;101961.03;5022110;28;20443;-78
2022/10/29 04:25:22;;;;;;;4.73;4.33;;;;;;;12.09;100.00;102240.41;5030243;28;20217;-78
2022/10/29 04:27:47;;;;;;;4.67;4.30;;;;;;;10.38;100.00;101913.09;5021344;28;20192;-78
2022/10/29 04:30:12;;;;;;;4.00;3.70;;;;;;;11.27;100.00;102026.53;5024979;28;20969;-79
2022/10/29 04:32:38;;;;;;;4.27;3.87;;;;;;;11.09;100.00;102010.69;5019434;28;20184;-78
2022/10/29 04:35:05;;;;;;;5.33;4.03;;;;;;;9.88;100.00;101817.66;5018314;28;20656;-79
2022/10/29 04:37:30;;;;;;;9.77;4.90;;;;;;;10.68;100.00;101969.72;5020143;28;20985;-78
2022/10/29 04:39:55;;;;;;;10.40;5.03;;;;;;;9.98;100.00;101859.53;5024015;28;20681;-78
2022/10/29 04:42:21;;;;;;;5.33;4.83;;;;;;;11.39;100.00;102137.13;5021589;28;20618;-78
2022/10/29 04:44:46;;;;;;;4.63;4.23;;;;;;;10.19;100.00;101898.22;5022406;28;20628;-79
2022/10/29 04:47:12;;;;;;;8.83;4.40;;;;;;;11.03;100.00;102032.84;5024396;28;20566;-78
2022/10/29 04:49:37;;;;;;;16.80;4.70;;;;;;;10.50;100.00;101994.06;5024326;28;20188;-78
2022/10/29 04:52:03;;;;;;;9.73;4.63;;;;;;;10.57;100.00;102048.72;5013495;28;20622;-78
2022/10/29 04:54:28;;;;;;;14.67;4.77;;;;;;;10.09;100.00;101986.00;5022083;28;20262;-79
2022/10/29 04:56:53;;;;;;;18.63;5.30;;;;;;;10.37;100.00;101997.25;5024245;28;20192;-78
2022/10/29 04:59:19;;;;;;;15.83;5.10;;;;;;;9.77;100.00;101922.50;5026330;28;20193;-79
2022/10/29 05:01:44;;;;;;;7.20;4.60;;;;;;;9.53;100.00;101840.31;5020145;28;20676;-78
2022/10/29 05:04:10;;;;;;;20.73;5.70;;;;;;;10.52;100.00;102029.59;5032126;28;20263;-78
2022/10/29 05:06:35;;;;;;;19.90;7.00;;;;;;;9.79;100.00;101939.28;5029887;28;20216;-79
2022/10/29 05:09:00;;;;;;;8.43;5.60;;;;;;;9.55;100.00;101866.94;5019895;28;20234;-78
2022/10/29 05:11:26;;;;;;;6.00;5.30;;;;;;;9.50;100.00;101907.59;5026710;28;20245;-78
2022/10/29 05:13:51;;;;;;;8.13;5.43;;;;;;;9.80;100.00;101919.50;5022764;28;20546;-78
2022/10/29 05:16:17;;;;;;;21.80;5.60;;;;;;;9.68;100.00;101869.94;5025269;28;20739;-79
2022/10/29 05:18:42;;;;;;;20.70;5.50;;;;;;;10.27;100.00;102007.34;5029616;28;20216;-78
2022/10/29 05:21:07;;;;;;;7.17;5.00;;;;;;;11.25;100.00;102178.13;5024510;28;20243;-77
2022/10/29 05:23:33;;;;;;;5.97;5.27;;;;;;;9.45;100.00;101880.47;5018335;28;20207;-77
2022/10/29 05:25:58;;;;;;;25.43;5.70;;;;;;;11.21;100.00;102182.19;5027988;28;20265;-78
2022/10/29 05:28:24;;;;;;;15.00;5.90;;;;;;;10.62;100.00;102109.94;5029509;28;20177;-79
2022/10/29 05:30:51;;;;;;;7.57;5.67;;;;;;;10.28;100.00;102086.78;5026517;28;20735;-78
2022/10/29 05:33:21;;;;;;;11.87;5.63;;;;;;;11.84;100.00;102328.38;5029493;28;20291;-80
2022/10/29 05:35:47;;;;;;;20.77;5.87;;;;;;;11.85;100.00;102327.34;5030627;28;20471;-78
2022/10/29 05:38:13;;;;;;;16.47;5.93;;;;;;;9.86;100.00;102030.53;5023159;28;20839;-79
2022/10/29 05:40:39;;;;;;;11.30;6.17;;;;;;;10.01;100.00;102066.44;5030721;28;20225;-77
2022/10/29 05:43:04;;;;;;;13.07;6.13;;;;;;;9.74;100.00;102030.03;5031585;28;21261;-78
2022/10/29 05:45:30;;;;;;;11.03;5.83;;;;;;;10.72;100.00;102207.19;5029479;28;20208;-79
2022/10/29 05:48:01;;;;;;;15.83;6.27;;;;;;;11.14;100.00;102272.47;5033176;28;20199;-78
2022/10/29 05:50:28;;;;;;;10.33;6.77;;;;;;;10.52;100.00;102165.56;5024971;28;20469;-77
2022/10/29 05:53:04;;;;;;;10.93;7.37;;;;;;;11.90;100.00;102446.84;5026637;28;20467;-79
2022/10/29 05:55:31;;;;;;;6.47;5.70;;;;;;;9.89;100.00;102043.63;5029531;28;20461;-79
2022/10/29 05:58:05;;;;;;;16.03;7.10;;;;;;;10.30;100.00;102175.94;5035488;28;20849;-78
2022/10/29 06:00:34;;;;;;;17.73;6.70;;;;;;;10.04;100.00;102149.22;5029624;28;20450;-79
2022/10/29 06:03:00;;;;;;;14.10;6.50;;;;;;;9.73;100.00;102039.06;5021797;28;20461;-78
2022/10/29 06:05:26;;;;;;;11.73;5.30;;;;;;;10.29;100.00;102186.81;5026187;28;20455;-78
2022/10/29 06:07:55;;;;;;;10.77;5.30;;;;;;;10.19;100.00;102128.78;5026730;28;20222;-79
2022/10/29 06:10:21;;;;;;;8.30;5.73;;;;;;;-145.14;100.00;70583.66;5028420;28;20468;-78
2022/10/29 06:12:48;;;;;;;11.00;6.53;;;;;;;-145.14;100.00;70583.66;5034305;28;20435;-78
2022/10/29 06:16:11;;;;;;;22.00;6.70;;;;;;;-145.14;100.00;70583.66;5026959;28;20469;-80
2022/10/29 06:19:34;;;;;;;18.13;5.93;;;;;;;-145.14;100.00;70583.66;5029289;28;20442;-78
2022/10/29 06:22:56;;;;;;;16.77;6.40;;;;;;;-145.14;100.00;70583.66;5028007;28;20525;-77
2022/10/29 06:25:27;;;;;;;8.70;6.10;;;;;;;-145.14;100.00;70583.66;5030496;28;21094;-78
2022/10/29 06:28:00;;;;;;;11.67;6.30;;;;;;;-145.14;100.00;70583.66;5025909;28;20453;-79
2022/10/29 06:30:27;;;;;;;13.20;6.43;;;;;;;-134.69;100.00;128521.78;5028531;28;20883;-78
2022/10/29 06:33:17;;;;;;;32.77;6.70;;;;;;;-145.14;100.00;70583.66;5020003;28;20938;-78
2022/10/29 06:36:12;;;;;;;16.40;6.10;;;;;;;-145.14;100.00;70583.66;5023978;28;20478;-79
2022/10/29 06:39:29;;;;;;;14.03;6.83;;;;;;;-145.14;100.00;70583.66;5008851;28;20445;-79
2022/10/29 06:42:59;;;;;;;7.90;6.93;;;;;;;-145.14;100.00;70583.66;5029971;28;20435;-79
2022/10/29 06:46:23;;;;;;;15.17;7.10;;;;;;;-145.14;100.00;70583.66;5028806;28;20464;-81
2022/10/29 06:49:47;;;;;;;8.20;7.40;;;;;;;-145.14;100.00;70583.66;5025604;28;20453;-78
2022/10/29 06:53:13;;;;;;;8.53;6.60;;;;;;;-145.14;100.00;70583.66;5013918;28;20901;-78
2022/10/29 06:56:37;;;;;;;10.00;6.93;;;;;;;-145.14;100.00;70583.66;5019422;28;20517;-79
2022/10/29 07:00:01;;;;;;;13.10;6.97;;;;;;;-145.14;100.00;70583.66;5016872;28;20435;-77
2022/10/29 07:03:25;;;;;;;10.10;8.30;;;;;;;-145.14;100.00;70583.66;5021118;28;20530;-79
2022/10/29 07:06:53;;;;;;;11.60;8.17;;;;;;;-145.14;100.00;70583.66;5023175;28;20460;-77
2022/10/29 07:10:17;;;;;;;15.30;8.07;;;;;;;-145.14;100.00;70583.66;5005874;28;20445;-79
2022/10/29 07:13:42;;;;;;;11.90;7.60;;;;;;;-145.14;100.00;70583.66;5022785;28;20509;-79
2022/10/29 07:17:05;;;;;;;9.97;7.40;;;;;;;-145.14;100.00;70583.66;5021653;28;20463;-78
2022/10/29 07:20:31;;;;;;;13.40;7.10;;;;;;;-145.14;100.00;70583.66;5020581;28;20699;-78
2022/10/29 07:23:56;;;;;;;15.63;8.20;;;;;;;-145.14;100.00;70583.66;5022717;28;22219;-79
2022/10/29 07:27:19;;;;;;;9.37;7.87;;;;;;;-145.14;100.00;70583.66;5024800;28;20539;-77
2022/10/29 07:30:43;;;;;;;9.40;7.63;;;;;;;-145.14;100.00;70583.66;5033701;28;20861;-77
2022/10/29 07:34:08;;;;;;;8.93;7.30;;;;;;;-145.14;100.00;70583.66;5026872;28;20511;-78
2022/10/29 07:37:32;;;;;;;10.03;8.23;;;;;;;-145.14;100.00;70583.66;5019293;28;21109;-78
2022/10/29 07:40:56;;;;;;;13.27;8.67;;;;;;;-145.14;100.00;70583.66;5024930;28;20554;-78
2022/10/29 07:44:20;;;;;;;15.97;8.17;;;;;;;-145.14;100.00;70583.66;5028150;28;20447;-79
2022/10/29 07:47:44;;;;;;;14.63;9.10;;;;;;;-145.14;100.00;70583.66;5021939;28;20459;-79
2022/10/29 07:51:08;;;;;;;10.90;8.57;;;;;;;-145.14;100.00;70583.66;5021204;28;20441;-78
2022/10/29 07:54:32;;;;;;;14.60;9.73;;;;;;;-145.14;100.00;70583.66;5020348;28;20954;-77
2022/10/29 07:57:57;;;;;;;12.97;8.53;;;;;;;-145.14;100.00;70583.66;5018996;28;20438;-78
2022/10/29 08:01:25;;;;;;;14.47;9.03;;;;;;;-145.14;100.00;70583.66;5012299;28;20451;-77
2022/10/29 08:04:49;;;;;;;12.23;8.80;;;;;;;-145.14;100.00;70583.66;5006781;28;20431;-79
2022/10/29 08:08:13;;;;;;;18.57;10.57;;;;;;;-145.14;100.00;70583.66;5004850;28;20444;-79
2022/10/29 08:11:37;;;;;;;16.60;9.30;;;;;;;-145.14;100.00;70583.66;5028748;28;20942;-80
2022/10/29 08:14:53;;;;;;;20.83;11.77;;;;;;;-145.14;100.00;70583.66;5025575;28;20458;-78
2022/10/29 08:17:56;;;;;;;17.30;10.33;;;;;;;-145.14;100.00;70583.66;5029762;28;20431;-77
2022/10/29 08:20:43;;;;;;;19.67;11.50;;;;;;;-145.14;100.00;70583.66;5027062;28;20450;-77
2022/10/29 08:23:32;;;;;;;19.70;14.40;;;;;;;-145.14;100.00;70583.66;5023344;28;20446;-75
2022/10/29 08:26:19;;;;;;;15.07;10.00;;;;;;;-145.14;100.00;70583.66;5016243;28;21041;-74
2022/10/29 08:29:05;;;;;;;17.10;10.90;;;;;;;-145.14;100.00;70583.66;5026109;28;20926;-75
2022/10/29 08:31:51;;;;;;;17.83;12.37;;;;;;;-145.14;100.00;70583.66;5019570;28;20454;-73
2022/10/29 08:34:36;;;;;;;20.07;12.43;;;;;;;-145.14;100.00;70583.66;5015461;28;21258;-72
2022/10/29 08:37:22;;;;;;;18.90;11.70;;;;;;;-145.14;100.00;70583.66;5020040;28;20853;-74
2022/10/29 08:40:29;;;;;;;20.53;10.87;;;;;;;-145.14;100.00;70583.66;5017927;28;20447;-72
2022/10/29 08:43:23;;;;;;;21.60;12.53;;;;;;;-145.14;100.00;70583.66;5020615;28;20476;-75
2022/10/29 08:46:23;;;;;;;25.03;11.50;;;;;;;-145.14;100.00;70583.66;5009056;28;20473;-73
2022/10/29 08:49:19;;;;;;;24.03;12.80;;;;;;;-145.14;100.00;70583.66;5021357;28;20441;-85
2022/10/29 08:52:12;;;;;;;26.83;14.13;;;;;;;-145.14;100.00;70583.66;5020935;28;20450;-79
2022/10/29 08:55:20;;;;;;;23.57;13.07;;;;;;;-145.14;100.00;70583.66;5011922;28;20470;-72
2022/10/29 08:58:20;;;;;;;30.30;16.57;;;;;;;-145.14;100.00;70583.66;5036982;28;20437;-83
2022/10/29 09:01:09;;;;;;;24.97;13.50;;;;;;;-145.14;100.00;70583.66;5005480;28;20438;-73
2022/10/29 09:03:55;;;;;;;24.87;14.30;;;;;;;-145.14;100.00;70583.66;5015019;28;20506;-84
2022/10/29 09:07:08;;;;;;;30.80;14.43;;;;;;;-145.14;100.00;70583.66;5016189;28;20459;-78
2022/10/29 09:10:15;;;;;;;22.07;12.30;;;;;;;-145.14;100.00;70583.66;5029409;28;20913;-75
2022/10/29 09:13:46;;;;;;;22.23;12.27;;;;;;;-145.14;100.00;70583.66;5024848;28;20584;-76
2022/10/29 09:17:10;;;;;;;24.63;13.13;;;;;;;-145.14;100.00;70583.66;5018599;28;20556;-80
2022/10/29 09:19:59;;;;;;;32.03;15.67;;;;;;;-145.14;100.00;70583.66;4997843;28;20615;-82
2022/10/29 09:22:52;;;;;;;26.10;14.83;;;;;;;-145.14;100.00;70583.66;5025328;28;20439;-83
2022/10/29 09:26:03;;;;;;;26.40;13.97;;;;;;;-145.14;100.00;70583.66;5022589;28;20470;-82
2022/10/29 09:28:55;;;;;;;29.43;15.87;;;;;;;-145.14;100.00;70583.66;5031281;22;20861;-77
2022/10/29 09:31:49;;;;;;;31.10;16.10;;;;;;;-145.14;100.00;70583.66;5023050;28;20864;-77
2022/10/29 09:34:46;;;;;;;37.23;17.80;;;;;;;-145.14;100.00;70583.66;5007284;28;20884;-77
2022/10/29 09:37:55;;;;;;;28.33;16.20;;;;;;;-145.14;100.00;70583.66;5019476;28;20934;-77
2022/10/29 09:40:44;;;;;;;32.93;18.30;;;;;;;-145.14;100.00;70583.66;5021699;28;20803;-77
2022/10/29 09:43:54;;;;;;;47.00;20.90;;;;;;;-145.14;100.00;70583.66;5026205;28;20443;-77
2022/10/29 09:46:59;;;;;;;40.63;19.10;;;;;;;-145.14;100.00;70583.66;5021541;28;20431;-77
2022/10/29 09:50:03;;;;;;;43.87;20.80;;;;;;;-145.14;100.00;70583.66;5026248;28;20477;-77
2022/10/29 09:52:51;;;;;;;37.63;18.47;;;;;;;-145.14;100.00;70583.66;5022701;28;21056;-77
2022/10/29 09:55:42;;;;;;;41.57;19.87;;;;;;;-145.14;100.00;70583.66;5023032;28;20474;-77
2022/10/29 09:58:41;;;;;;;47.10;20.40;;;;;;;-145.14;100.00;70583.66;5020370;28;20469;-77
2022/10/29 10:01:27;;;;;;;46.63;22.17;;;;;;;-145.14;100.00;70583.66;5013415;28;20443;-78
2022/10/29 10:04:35;;;;;;;45.43;21.50;;;;;;;-145.14;100.00;70583.66;5014626;28;20923;-78
2022/10/29 10:07:21;;;;;;;45.03;20.97;;;;;;;-145.14;100.00;70583.66;5021499;28;20942;-77
2022/10/29 10:10:20;;;;;;;44.40;23.07;;;;;;;-145.14;100.00;70583.66;5024073;28;20450;-78
2022/10/29 10:13:12;;;;;;;45.13;21.67;;;;;;;-145.14;100.00;70583.66;5003248;28;20804;-79
2022/10/29 10:15:59;;;;;;;45.37;22.43;;;;;;;-145.14;100.00;70583.66;5014694;28;20467;-77
2022/10/29 10:18:51;;;;;;;46.17;22.83;;;;;;;-145.14;100.00;70583.66;5016439;28;20477;-78
2022/10/29 10:21:55;;;;;;;49.20;24.00;;;;;;;-145.14;100.00;70583.66;5014012;28;20439;-78
2022/10/29 10:24:56;;;;;;;39.80;21.63;;;;;;;-145.14;100.00;70583.66;5023023;28;20501;-78
2022/10/29 10:27:42;;;;;;;39.50;21.37;;;;;;;-145.14;100.00;70583.66;5007337;28;20454;-79
2022/10/29 10:30:33;;;;;;;44.93;22.80;;;;;;;-145.14;100.00;70583.66;4999055;28;20457;-78
2022/10/29 10:33:31;;;;;;;36.10;21.17;;;;;;;-145.14;100.00;70583.66;5014639;28;20439;-79
2022/10/29 10:36:27;;;;;;;32.90;19.00;;;;;;;-145.14;100.00;70583.66;5002916;28;20537;-79
2022/10/29 10:39:19;;;;;;;41.77;22.10;;;;;;;-145.14;100.00;70583.66;5015922;28;20462;-79
2022/10/29 10:42:23;;;;;;;38.47;23.17;;;;;;;-145.14;100.00;70583.66;5008163;28;20526;-79
2022/10/29 10:45:36;;;;;;;39.17;22.43;;;;;;;-145.14;100.00;70583.66;5011110;28;20439;-78
2022/10/29 10:48:25;;;;;;;36.17;19.90;;;;;;;-145.14;100.00;70583.66;5016651;28;20616;-79
2022/10/29 10:51:21;;;;;;;36.17;19.43;;;;;;;-145.14;100.00;70583.66;4998655;28;20447;-79
2022/10/29 10:54:27;;;;;;;30.30;19.50;;;;;;;-145.14;100.00;70583.66;5004791;28;20569;-78
2022/10/29 10:57:22;;;;;;;30.07;19.03;;;;;;;-145.14;100.00;70583.66;4989317;28;20463;-79
2022/10/29 11:00:20;;;;;;;37.23;21.10;;;;;;;-145.14;100.00;70583.66;4994379;28;20443;-79
2022/10/29 11:03:16;;;;;;;36.17;19.80;;;;;;;-145.14;100.00;70583.66;5017846;28;20451;-79
2022/10/29 11:06:17;;;;;;;30.63;18.50;;;;;;;-145.14;100.00;70583.66;5010135;28;20438;-79
2022/10/29 11:09:18;;;;;;;33.97;18.70;;;;;;;-145.14;100.00;70583.66;5020137;28;20477;-79
2022/10/29 11:12:39;;;;;;;43.00;22.00;;;;;;;-145.14;100.00;70583.66;5004608;28;20450;-79
2022/10/29 11:15:59;;;;;;;33.03;18.30;;;;;;;-145.14;100.00;70583.66;5016366;28;20479;-80
2022/10/29 11:19:08;;;;;;;40.73;20.00;;;;;;;-145.14;100.00;70583.66;4993375;28;20471;-80
2022/10/29 11:21:57;;;;;;;41.07;21.63;;;;;;;-145.14;100.00;70583.66;5021112;28;20435;-84
2022/10/29 11:24:54;;;;;;;38.20;21.73;;;;;;;-145.14;100.00;70583.66;5003397;28;20442;-78
2022/10/29 11:27:52;;;;;;;36.17;21.73;;;;;;;-145.14;100.00;70583.66;5018728;28;20496;-77
2022/10/29 11:30:43;;;;;;;33.37;18.20;;;;;;;-145.14;100.00;70583.66;5024064;28;20445;-77
2022/10/29 11:33:33;;;;;;;28.13;17.43;;;;;;;-145.14;100.00;70583.66;5003143;28;20509;-78
2022/10/29 11:36:42;;;;;;;26.73;16.63;;;;;;;-145.14;100.00;70583.66;5019578;28;20469;-78
2022/10/29 11:39:55;;;;;;;21.20;14.83;;;;;;;-145.14;100.00;70583.66;5022081;28;21047;-78
2022/10/29 11:42:41;;;;;;;26.20;16.70;;;;;;;-145.14;100.00;70583.66;5013953;28;20455;-78
2022/10/29 11:45:34;;;;;;;25.73;16.00;;;;;;;-145.14;100.00;70583.66;5016050;28;20976;-78
2022/10/29 11:48:52;;;;;;;30.57;16.20;;;;;;;-145.14;100.00;70583.66;5022599;28;20466;-78
2022/10/29 11:52:04;;;;;;;25.40;14.23;;;;;;;-145.14;100.00;70583.66;5019340;28;21415;-79
2022/10/29 11:55:22;;;;;;;21.40;13.90;;;;;;;-145.14;100.00;70583.66;5003840;28;20495;-79
2022/10/29 11:58:30;;;;;;;22.40;14.30;;;;;;;-145.14;100.00;70583.66;5021175;28;20508;-79
2022/10/29 12:01:22;;;;;;;26.33;13.90;;;;;;;-145.14;100.00;70583.66;5020442;28;20439;-79
2022/10/29 12:04:20;;;;;;;18.77;11.83;;;;;;;-145.14;100.00;70583.66;5016708;28;20439;-79
2022/10/29 12:07:23;;;;;;;23.80;14.93;;;;;;;-145.14;100.00;70583.66;5020638;28;20443;-79
2022/10/29 12:10:44;;;;;;;23.20;13.30;;;;;;;-145.14;100.00;70583.66;5024210;28;20471;-80
2022/10/29 12:13:48;;;;;;;21.27;12.30;;;;;;;-145.14;100.00;70583.66;5020678;28;20473;-79
2022/10/29 12:16:46;;;;;;;24.57;14.60;;;;;;;-145.14;100.00;70583.66;5018568;28;20462;-80
2022/10/29 12:19:54;;;;;;;20.23;13.40;;;;;;;-145.14;100.00;70583.66;5018739;28;20467;-80
2022/10/29 12:22:47;;;;;;;20.27;13.00;;;;;;;-145.14;100.00;70583.66;5016238;28;20473;-79
2022/10/29 12:25:59;;;;;;;22.37;12.97;;;;;;;-145.14;100.00;70583.66;5020939;28;20530;-80